createdAt,value
2022-12-12T00:00:05.631Z,-5.20
2022-12-12T00:02:41.497Z,-5.10
2022-12-12T00:05:11.184Z,-5.10
2022-12-12T00:07:40.803Z,-5.10
2022-12-12T00:10:10.001Z,-5.10
2022-12-12T00:12:38.059Z,-5.10
2022-12-12T00:15:07.512Z,-5.10
2022-12-12T00:17:36.121Z,-5.10
2022-12-12T00:20:05.519Z,-5.10
2022-12-12T00:22:33.804Z,-5.10
2022-12-12T00:25:03.199Z,-5.10
2022-12-12T00:27:34.172Z,-5.10
2022-12-12T00:30:02.292Z,-5.20
2022-12-12T00:32:31.073Z,-5.10
2022-12-12T00:34:59.181Z,-5.10
2022-12-12T00:37:27.149Z,-5.10
2022-12-12T00:39:55.393Z,-5.10
2022-12-12T00:42:27.420Z,-5.10
2022-12-12T00:44:55.874Z,-5.10
2022-12-12T00:47:23.873Z,-5.20
2022-12-12T00:49:52.119Z,-5.10
2022-12-12T00:52:20.172Z,-5.10
2022-12-12T00:54:48.229Z,-5.10
2022-12-12T00:57:16.294Z,-5.10
2022-12-12T00:59:45.920Z,-5.10
2022-12-12T01:02:14.242Z,-5.00
2022-12-12T01:04:42.310Z,-5.10
2022-12-12T01:07:10.532Z,-5.10
2022-12-12T01:09:38.595Z,-5.10
2022-12-12T01:12:06.781Z,-5.10
2022-12-12T01:14:35.140Z,-5.10
2022-12-12T01:17:04.756Z,-5.10
2022-12-12T01:19:33.077Z,-5.10
2022-12-12T01:22:01.339Z,-5.00
2022-12-12T01:24:29.379Z,-5.00
2022-12-12T01:26:57.487Z,-5.00
2022-12-12T01:29:25.849Z,-5.00
2022-12-12T01:31:54.280Z,-5.00
2022-12-12T01:34:23.791Z,-5.00
2022-12-12T01:36:52.190Z,-5.00
2022-12-12T01:39:20.520Z,-5.00
2022-12-12T01:41:48.860Z,-5.00
2022-12-12T01:44:40.760Z,-5.00
2022-12-12T01:47:09.028Z,-5.00
2022-12-12T01:49:38.909Z,-4.90
2022-12-12T01:52:11.868Z,-4.90
2022-12-12T01:54:43.866Z,-4.90
2022-12-12T01:57:15.010Z,-4.90
2022-12-12T01:59:44.688Z,-5.00
2022-12-12T02:02:14.121Z,-5.00
2022-12-12T02:04:44.738Z,-5.00
2022-12-12T02:07:12.843Z,-5.00
2022-12-12T02:09:41.846Z,-4.90
2022-12-12T02:12:14.668Z,-4.90
2022-12-12T02:14:49.040Z,-4.90
2022-12-12T02:17:39.949Z,-4.90
2022-12-12T02:24:10.853Z,-4.90
2022-12-12T02:27:27.063Z,-4.90
2022-12-12T02:30:10.372Z,-4.90
2022-12-12T02:33:14.620Z,-4.90
2022-12-12T02:35:58.834Z,-4.90
2022-12-12T02:38:30.848Z,-4.90
2022-12-12T02:41:10.040Z,-4.90
2022-12-12T02:43:42.197Z,-4.90
2022-12-12T02:46:15.648Z,-4.90
2022-12-12T02:48:49.755Z,-4.90
2022-12-12T02:51:20.961Z,-4.90
2022-12-12T02:53:49.046Z,-4.90
2022-12-12T02:56:47.898Z,-4.90
2022-12-12T02:59:20.427Z,-4.80
2022-12-12T03:02:08.427Z,-4.90
2022-12-12T03:05:07.410Z,-4.90
2022-12-12T03:07:50.050Z,-4.80
2022-12-12T03:10:31.891Z,-4.90
2022-12-12T03:13:10.470Z,-4.80
2022-12-12T03:15:50.700Z,-4.80
2022-12-12T03:18:28.385Z,-4.80
2022-12-12T03:21:03.690Z,-4.80
2022-12-12T03:23:36.064Z,-4.80
2022-12-12T03:26:11.014Z,-4.80
2022-12-12T03:28:45.183Z,-4.80
2022-12-12T03:31:15.758Z,-4.80
2022-12-12T03:33:47.283Z,-4.80
2022-12-12T03:36:19.040Z,-4.80
2022-12-12T03:38:57.426Z,-4.80
2022-12-12T03:41:31.665Z,-4.80
2022-12-12T03:44:03.986Z,-4.80
2022-12-12T03:46:38.217Z,-4.80
2022-12-12T03:49:14.045Z,-4.80
2022-12-12T03:51:46.958Z,-4.80
2022-12-12T03:54:22.335Z,-4.80
2022-12-12T03:56:54.574Z,-4.80
2022-12-12T03:59:27.888Z,-4.80
2022-12-12T04:02:00.173Z,-4.80
2022-12-12T04:04:32.689Z,-4.80
2022-12-12T04:07:05.860Z,-4.80
2022-12-12T04:09:53.319Z,-4.80
2022-12-12T04:12:44.786Z,-4.80
2022-12-12T04:15:29.104Z,-4.80
2022-12-12T04:18:07.480Z,-4.80
2022-12-12T04:21:01.525Z,-4.80
2022-12-12T04:23:36.596Z,-4.80
2022-12-12T04:26:45.429Z,-4.80
2022-12-12T04:29:25.302Z,-4.80
2022-12-12T04:31:57.696Z,-4.80
2022-12-12T04:34:34.371Z,-4.80
2022-12-12T04:37:04.861Z,-4.80
2022-12-12T04:39:34.009Z,-4.80
2022-12-12T04:42:06.733Z,-4.80
2022-12-12T04:44:38.018Z,-4.80
2022-12-12T04:47:07.621Z,-4.80
2022-12-12T04:49:37.165Z,-4.80
2022-12-12T04:52:09.639Z,-4.80
2022-12-12T04:54:43.767Z,-4.80
2022-12-12T04:57:18.263Z,-4.80
2022-12-12T04:59:46.340Z,-4.80
2022-12-12T05:02:20.632Z,-4.80
2022-12-12T05:04:53.772Z,-4.80
2022-12-12T05:07:29.397Z,-4.80
2022-12-12T05:09:59.026Z,-4.80
2022-12-12T05:12:28.808Z,-4.80
2022-12-12T05:14:56.816Z,-4.80
2022-12-12T05:17:32.111Z,-4.80
2022-12-12T05:20:00.601Z,-4.70
2022-12-12T05:22:28.796Z,-4.80
2022-12-12T05:24:56.853Z,-4.70
2022-12-12T05:27:24.807Z,-4.80
2022-12-12T05:29:54.244Z,-4.80
2022-12-12T05:32:22.269Z,-4.80
2022-12-12T05:34:50.290Z,-4.80
2022-12-12T05:37:18.428Z,-4.80
2022-12-12T05:39:46.600Z,-4.80
2022-12-12T05:42:14.580Z,-4.90
2022-12-12T05:44:42.795Z,-4.80
2022-12-12T05:47:12.460Z,-4.80
2022-12-12T05:49:40.673Z,-4.90
2022-12-12T05:52:08.760Z,-4.90
2022-12-12T05:54:36.962Z,-4.80
2022-12-12T05:57:06.582Z,-4.80
2022-12-12T05:59:36.925Z,-4.80
2022-12-12T06:02:05.044Z,-4.80
2022-12-12T06:04:34.606Z,-4.80
2022-12-12T06:07:02.929Z,-4.80
2022-12-12T06:09:30.966Z,-4.80
2022-12-12T06:11:59.071Z,-4.90
2022-12-12T06:14:27.597Z,-4.90
2022-12-12T06:16:55.791Z,-4.90
2022-12-12T06:19:23.882Z,-4.80
2022-12-12T06:21:53.477Z,-4.90
2022-12-12T06:24:21.817Z,-4.90
2022-12-12T06:26:49.989Z,-4.90
2022-12-12T06:29:18.019Z,-4.90
2022-12-12T06:31:46.310Z,-4.90
2022-12-12T06:34:14.314Z,-4.90
2022-12-12T06:36:42.379Z,-4.90
2022-12-12T06:39:12.012Z,-4.90
2022-12-12T06:41:40.408Z,-4.90
2022-12-12T06:44:08.476Z,-4.90
2022-12-12T06:46:36.716Z,-4.90
2022-12-12T06:49:09.615Z,-4.90
2022-12-12T06:51:44.262Z,-4.90
2022-12-12T06:54:15.177Z,-4.90
2022-12-12T06:56:48.204Z,-4.90
2022-12-12T06:59:17.969Z,-4.90
2022-12-12T07:01:46.979Z,-4.90
2022-12-12T07:04:15.979Z,-4.90
2022-12-12T07:06:44.322Z,-4.90
2022-12-12T07:09:13.776Z,-4.90
2022-12-12T07:11:42.597Z,-4.90
2022-12-12T07:14:12.095Z,-4.80
2022-12-12T07:16:40.724Z,-4.80
2022-12-12T07:19:08.804Z,-4.80
2022-12-12T07:21:36.994Z,-4.80
2022-12-12T07:24:05.436Z,-4.70
2022-12-12T07:26:34.999Z,-4.70
2022-12-12T07:29:05.335Z,-4.70
2022-12-12T07:31:33.491Z,-4.60
2022-12-12T07:34:01.619Z,-4.70
2022-12-12T07:36:29.697Z,-4.60
2022-12-12T07:38:57.869Z,-4.60
2022-12-12T07:41:26.467Z,-4.60
2022-12-12T07:43:55.951Z,-4.50
2022-12-12T07:46:26.483Z,-4.50
2022-12-12T07:48:55.789Z,-4.40
2022-12-12T07:51:24.258Z,-4.40
2022-12-12T07:53:52.689Z,-4.40
2022-12-12T07:56:21.291Z,-4.40
2022-12-12T07:58:49.481Z,-4.30
2022-12-12T08:01:20.761Z,-4.30
2022-12-12T08:03:50.031Z,-4.30
2022-12-12T08:06:19.127Z,-4.20
2022-12-12T08:08:48.052Z,-4.20
2022-12-12T08:11:18.498Z,-4.20
2022-12-12T08:13:47.014Z,-4.10
2022-12-12T08:16:18.575Z,-4.10
2022-12-12T08:18:47.910Z,-4.10
2022-12-12T08:21:23.160Z,-4.10
2022-12-12T08:23:56.354Z,-4.10
2022-12-12T08:26:24.608Z,-4.00
2022-12-12T08:28:52.803Z,-4.00
2022-12-12T08:31:22.631Z,-3.90
2022-12-12T08:33:51.604Z,-3.90
2022-12-12T08:36:22.729Z,-3.90
2022-12-12T08:38:51.289Z,-3.80
2022-12-12T08:41:19.980Z,-3.80
2022-12-12T08:43:48.232Z,-3.80
2022-12-12T08:46:18.480Z,-3.70
2022-12-12T08:48:48.921Z,-3.70
2022-12-12T08:51:18.570Z,-3.70
2022-12-12T08:53:47.650Z,-3.60
2022-12-12T08:56:16.631Z,-3.50
2022-12-12T08:58:45.328Z,-3.50
2022-12-12T09:01:14.880Z,-3.40
2022-12-12T09:03:43.213Z,-3.40
2022-12-12T09:06:14.237Z,-3.40
2022-12-12T09:08:43.217Z,-3.30
2022-12-12T09:11:11.565Z,-3.30
2022-12-12T09:13:39.790Z,-3.20
2022-12-12T09:16:09.586Z,-3.20
2022-12-12T09:18:44.604Z,-3.10
2022-12-12T09:21:17.607Z,-3.10
2022-12-12T09:23:46.316Z,-3.10
2022-12-12T09:26:15.018Z,-3.00
2022-12-12T09:28:43.059Z,-3.10
2022-12-12T09:31:13.371Z,-3.00
2022-12-12T09:33:42.906Z,-3.10
2022-12-12T09:36:13.876Z,-3.00
2022-12-12T09:38:44.196Z,-3.00
2022-12-12T09:41:17.027Z,-3.00
2022-12-12T09:43:51.674Z,-3.00
2022-12-12T09:46:29.355Z,-3.00
2022-12-12T09:49:04.465Z,-3.00
2022-12-12T09:51:32.933Z,-3.00
2022-12-12T09:54:02.626Z,-3.00
2022-12-12T09:56:37.774Z,-3.00
2022-12-12T09:59:13.342Z,-2.90
2022-12-12T10:01:53.792Z,-2.80
2022-12-12T10:04:29.837Z,-2.80
2022-12-12T10:07:02.434Z,-2.70
2022-12-12T10:09:40.664Z,-2.80
2022-12-12T10:12:13.609Z,-2.70
2022-12-12T10:14:44.898Z,-2.60
2022-12-12T10:17:17.980Z,-2.50
2022-12-12T10:19:50.759Z,-2.60
2022-12-12T10:22:27.771Z,-2.60
2022-12-12T10:25:03.855Z,-2.60
2022-12-12T10:27:32.146Z,-2.50
2022-12-12T10:30:08.128Z,-2.50
2022-12-12T10:32:47.194Z,-2.40
2022-12-12T10:35:26.387Z,-2.40
2022-12-12T10:38:15.157Z,-2.40
2022-12-12T10:40:54.860Z,-2.40
2022-12-12T10:43:26.373Z,-2.50
2022-12-12T10:46:10.712Z,-2.30
2022-12-12T10:48:40.376Z,-2.30
2022-12-12T10:51:13.039Z,-2.10
2022-12-12T10:53:43.286Z,-2.00
2022-12-12T10:56:20.034Z,-1.90
2022-12-12T10:58:55.016Z,-1.90
2022-12-12T11:01:52.371Z,-1.80
2022-12-12T11:04:16.003Z,-1.80
2022-12-12T11:06:49.186Z,-1.80
2022-12-12T11:09:21.178Z,-1.70
2022-12-12T11:12:01.322Z,-1.70
2022-12-12T11:14:33.780Z,-1.60
2022-12-12T11:17:02.234Z,-1.50
2022-12-12T11:19:38.625Z,-1.40
2022-12-12T11:22:07.021Z,-1.50
2022-12-12T11:24:39.442Z,-1.50
2022-12-12T11:27:09.108Z,-1.40
2022-12-12T11:29:44.603Z,-1.30
2022-12-12T11:32:14.288Z,-1.40
2022-12-12T11:34:46.908Z,-1.50
2022-12-12T11:37:19.680Z,-1.50
2022-12-12T11:39:51.255Z,-1.50
2022-12-12T11:42:25.774Z,-1.40
2022-12-12T11:45:06.403Z,-1.30
2022-12-12T11:47:41.656Z,-1.30
2022-12-12T11:50:20.786Z,-1.30
2022-12-12T11:52:50.850Z,-1.40
2022-12-12T11:55:25.978Z,-1.40
2022-12-12T11:58:18.785Z,-1.20
2022-12-12T12:00:56.389Z,-1.20
2022-12-12T12:03:35.089Z,-1.20
2022-12-12T12:06:23.868Z,-1.40
2022-12-12T12:09:15.837Z,-1.60
2022-12-12T12:11:54.247Z,-1.60
2022-12-12T12:14:41.371Z,-1.60
2022-12-12T12:17:17.831Z,-1.60
2022-12-12T12:19:52.516Z,-1.50
2022-12-12T12:22:28.423Z,-1.60
2022-12-12T12:25:19.131Z,-1.50
2022-12-12T12:27:59.209Z,-1.50
2022-12-12T12:30:33.277Z,-1.60
2022-12-12T12:33:24.176Z,-1.60
2022-12-12T12:36:02.022Z,-1.70
2022-12-12T12:38:49.767Z,-1.70
2022-12-12T12:41:31.883Z,-1.70
2022-12-12T12:44:17.963Z,-1.80
2022-12-12T12:46:53.601Z,-1.80
2022-12-12T12:49:25.708Z,-1.80
2022-12-12T12:52:00.189Z,-1.80
2022-12-12T12:54:33.578Z,-1.80
2022-12-12T12:57:07.745Z,-1.80
2022-12-12T12:59:41.793Z,-1.80
2022-12-12T13:02:21.187Z,-1.80
2022-12-12T13:05:03.653Z,-1.80
2022-12-12T13:07:42.781Z,-1.80
2022-12-12T13:10:18.718Z,-1.80
2022-12-12T13:12:51.090Z,-1.90
2022-12-12T13:15:23.807Z,-1.90
2022-12-12T13:18:01.335Z,-2.10
2022-12-12T13:20:33.316Z,-2.10
2022-12-12T13:23:14.157Z,-2.10
2022-12-12T13:25:51.878Z,-2.10
2022-12-12T13:28:24.343Z,-2.10
2022-12-12T13:31:15.954Z,-2.10
2022-12-12T13:33:48.744Z,-2.00
2022-12-12T13:36:27.604Z,-2.10
2022-12-12T13:39:00.191Z,-2.20
2022-12-12T13:41:29.209Z,-2.20
2022-12-12T13:43:58.969Z,-2.30
2022-12-12T13:46:39.377Z,-2.30
2022-12-12T13:49:33.606Z,-2.40
2022-12-12T13:52:25.041Z,-2.40
2022-12-12T13:54:56.533Z,-2.50
2022-12-12T13:57:33.894Z,-2.60
2022-12-12T14:00:23.294Z,-2.60
2022-12-12T14:03:02.090Z,-2.70
2022-12-12T14:05:35.689Z,-2.80
2022-12-12T14:08:09.168Z,-2.70
2022-12-12T14:10:41.403Z,-2.80
2022-12-12T14:13:52.373Z,-2.80
2022-12-12T14:16:27.767Z,-2.80
2022-12-12T14:19:03.538Z,-2.80
2022-12-12T14:21:42.454Z,-2.80
2022-12-12T14:24:57.006Z,-2.90
2022-12-12T14:28:03.231Z,-3.00
2022-12-12T14:30:47.994Z,-3.10
2022-12-12T14:33:44.799Z,-3.20
2022-12-12T14:36:36.638Z,-3.30
2022-12-12T14:39:16.021Z,-3.50
2022-12-12T14:41:46.739Z,-3.60
2022-12-12T14:44:36.526Z,-3.70
2022-12-12T14:47:09.453Z,-3.80
2022-12-12T14:49:37.884Z,-3.90
2022-12-12T14:52:06.421Z,-4.00
2022-12-12T14:54:37.443Z,-4.10
2022-12-12T14:57:08.904Z,-4.10
2022-12-12T14:59:40.162Z,-4.20
2022-12-12T15:02:19.525Z,-4.20
2022-12-12T15:04:51.359Z,-4.20
2022-12-12T15:07:28.004Z,-4.30
2022-12-12T15:09:57.703Z,-4.40
2022-12-12T15:12:28.296Z,-4.50
2022-12-12T15:14:58.256Z,-4.60
2022-12-12T15:17:30.260Z,-4.70
2022-12-12T15:20:01.971Z,-4.80
2022-12-12T15:22:32.718Z,-5.00
2022-12-12T15:25:05.218Z,-5.20
2022-12-12T15:27:38.624Z,-5.30
2022-12-12T15:30:14.408Z,-5.50
2022-12-12T15:32:48.381Z,-5.60
2022-12-12T15:35:18.470Z,-5.80
2022-12-12T15:37:56.949Z,-5.90
2022-12-12T15:40:31.560Z,-6.10
2022-12-12T15:43:01.838Z,-6.20
2022-12-12T15:45:35.374Z,-6.30
2022-12-12T15:48:04.514Z,-6.30
2022-12-12T15:50:39.870Z,-6.30
2022-12-12T15:53:08.345Z,-6.30
2022-12-12T15:55:38.231Z,-6.20
2022-12-12T15:58:06.686Z,-6.10
2022-12-12T16:00:38.596Z,-6.10
2022-12-12T16:03:21.023Z,-6.00
2022-12-12T16:06:15.408Z,-5.90
2022-12-12T16:09:41.689Z,-5.80
2022-12-12T16:12:11.517Z,-5.70
2022-12-12T16:14:43.079Z,-5.70
2022-12-12T16:17:14.282Z,-5.70
2022-12-12T16:19:45.401Z,-5.60
2022-12-12T16:22:20.055Z,-5.60
2022-12-12T16:24:51.198Z,-5.50
2022-12-12T16:27:21.330Z,-5.50
2022-12-12T16:29:50.710Z,-5.40
2022-12-12T16:32:20.438Z,-5.40
2022-12-12T16:34:48.578Z,-5.30
2022-12-12T16:37:17.882Z,-5.20
2022-12-12T16:39:46.016Z,-5.20
2022-12-12T16:42:15.491Z,-5.20
2022-12-12T16:44:45.407Z,-5.10
2022-12-12T16:47:16.989Z,-5.10
2022-12-12T16:49:45.298Z,-5.00
2022-12-12T16:52:14.108Z,-5.00
2022-12-12T16:54:43.015Z,-5.00
2022-12-12T16:57:13.190Z,-5.00
2022-12-12T16:59:41.470Z,-5.00
2022-12-12T17:02:20.728Z,-5.00
2022-12-12T17:04:48.983Z,-5.00
2022-12-12T17:07:17.793Z,-5.00
2022-12-12T17:09:46.305Z,-5.00
2022-12-12T17:12:15.855Z,-4.90
2022-12-12T17:14:44.165Z,-5.00
2022-12-12T17:17:13.708Z,-4.90
2022-12-12T17:19:41.838Z,-5.00
2022-12-12T17:22:09.900Z,-5.00
2022-12-12T17:24:38.130Z,-5.00
2022-12-12T17:27:06.266Z,-5.00
2022-12-12T17:29:34.681Z,-4.90
2022-12-12T17:32:03.568Z,-4.90
2022-12-12T17:34:33.222Z,-4.90
2022-12-12T17:37:01.577Z,-4.90
2022-12-12T17:39:29.945Z,-4.90
2022-12-12T17:41:58.568Z,-4.90
2022-12-12T17:44:27.971Z,-4.90
2022-12-12T17:46:56.075Z,-4.80
2022-12-12T17:49:24.282Z,-4.80
2022-12-12T17:51:53.742Z,-4.80
2022-12-12T17:54:22.048Z,-4.80
2022-12-12T17:56:51.016Z,-4.80
2022-12-12T17:59:19.079Z,-4.80
2022-12-12T18:01:52.971Z,-4.90
2022-12-12T18:04:27.402Z,-4.80
2022-12-12T18:06:57.707Z,-4.80
2022-12-12T18:09:26.086Z,-4.80
2022-12-12T18:11:54.236Z,-4.80
2022-12-12T18:14:22.309Z,-4.80
2022-12-12T18:16:51.380Z,-4.80
2022-12-12T18:19:20.281Z,-4.80
2022-12-12T18:22:00.779Z,-4.80
2022-12-12T18:24:32.905Z,-4.80
2022-12-12T18:27:03.437Z,-4.80
2022-12-12T18:29:32.186Z,-4.80
2022-12-12T18:32:00.705Z,-4.80
2022-12-12T18:34:28.907Z,-4.80
2022-12-12T18:36:57.023Z,-4.80
2022-12-12T18:39:25.346Z,-4.80
2022-12-12T18:41:54.927Z,-4.80
2022-12-12T18:44:23.028Z,-4.80
2022-12-12T18:46:52.032Z,-4.80
2022-12-12T18:49:20.479Z,-4.80
2022-12-12T18:51:49.031Z,-4.80
2022-12-12T18:54:17.872Z,-4.80
2022-12-12T18:56:47.595Z,-4.80
2022-12-12T18:59:17.505Z,-4.80
2022-12-12T19:01:46.394Z,-4.80
2022-12-12T19:04:22.517Z,-4.80
2022-12-12T19:06:53.501Z,-4.80
2022-12-12T19:09:21.943Z,-4.80
2022-12-12T19:11:51.744Z,-4.80
2022-12-12T19:14:24.448Z,-4.80
2022-12-12T19:16:52.839Z,-4.80
2022-12-12T19:19:21.009Z,-4.70
2022-12-12T19:21:49.578Z,-4.80
2022-12-12T19:24:17.691Z,-4.80
2022-12-12T19:26:46.201Z,-4.80
2022-12-12T19:29:16.806Z,-4.80
2022-12-12T19:31:47.169Z,-4.80
2022-12-12T19:34:17.011Z,-4.80
2022-12-12T19:36:46.215Z,-4.80
2022-12-12T19:39:14.716Z,-4.80
2022-12-12T19:41:43.195Z,-4.80
2022-12-12T19:44:13.043Z,-4.80
2022-12-12T19:46:43.529Z,-4.80
2022-12-12T19:49:14.557Z,-4.70
2022-12-12T19:51:44.915Z,-4.70
2022-12-12T19:54:15.961Z,-4.70
2022-12-12T19:56:45.503Z,-4.80
2022-12-12T19:59:15.077Z,-4.80
2022-12-12T20:01:44.254Z,-4.80
2022-12-12T20:04:17.542Z,-4.80
2022-12-12T20:06:46.910Z,-4.80
2022-12-12T20:09:17.025Z,-4.80
2022-12-12T20:11:45.969Z,-4.80
2022-12-12T20:14:16.135Z,-4.80
2022-12-12T20:16:44.785Z,-4.80
2022-12-12T20:19:13.921Z,-4.80
2022-12-12T20:22:00.827Z,-4.80
2022-12-12T20:24:30.127Z,-4.80
2022-12-12T20:26:59.921Z,-4.80
2022-12-12T20:29:28.448Z,-4.80
2022-12-12T20:31:57.035Z,-4.80
2022-12-12T20:34:25.454Z,-4.80
2022-12-12T20:36:56.137Z,-4.80
2022-12-12T20:39:26.015Z,-4.80
2022-12-12T20:41:56.650Z,-4.80
2022-12-12T20:44:25.654Z,-4.80
2022-12-12T20:46:53.995Z,-4.80
2022-12-12T20:49:24.654Z,-4.80
2022-12-12T20:51:56.451Z,-4.80
2022-12-12T20:54:25.652Z,-4.80
2022-12-12T20:56:54.653Z,-4.80
2022-12-12T20:59:23.642Z,-4.80
2022-12-12T21:01:52.246Z,-4.80
2022-12-12T21:04:20.927Z,-4.80
2022-12-12T21:06:50.110Z,-4.80
2022-12-12T21:09:25.089Z,-4.80
2022-12-12T21:11:54.636Z,-4.90
2022-12-12T21:14:22.854Z,-4.90
2022-12-12T21:16:50.883Z,-4.90
2022-12-12T21:19:21.049Z,-4.90
2022-12-12T21:21:49.486Z,-4.90
2022-12-12T21:24:20.538Z,-5.00
2022-12-12T21:26:49.630Z,-4.90
2022-12-12T21:29:17.873Z,-5.00
2022-12-12T21:31:51.643Z,-5.00
2022-12-12T21:34:22.216Z,-5.00
2022-12-12T21:36:54.837Z,-5.10
2022-12-12T21:39:27.231Z,-5.20
2022-12-12T21:41:56.170Z,-5.20
2022-12-12T21:44:24.776Z,-5.30
2022-12-12T21:46:53.021Z,-5.30
2022-12-12T21:49:26.917Z,-5.40
2022-12-12T21:51:57.055Z,-5.40
2022-12-12T21:54:29.027Z,-5.50
2022-12-12T21:56:57.809Z,-5.50
2022-12-12T21:59:26.798Z,-5.60
2022-12-12T22:01:56.289Z,-5.60
2022-12-12T22:04:24.588Z,-5.60
2022-12-12T22:06:52.799Z,-5.60
2022-12-12T22:09:21.621Z,-5.70
2022-12-12T22:11:51.955Z,-5.70
2022-12-12T22:14:22.819Z,-5.70
2022-12-12T22:16:51.136Z,-5.80
2022-12-12T22:19:19.399Z,-5.90
2022-12-12T22:21:49.045Z,-6.00
2022-12-12T22:24:17.852Z,-6.10
2022-12-12T22:26:47.438Z,-6.20
2022-12-12T22:29:18.701Z,-6.30
2022-12-12T22:31:50.306Z,-6.50
2022-12-12T22:34:20.277Z,-6.60
2022-12-12T22:36:48.927Z,-6.80
2022-12-12T22:39:19.328Z,-7.00
2022-12-12T22:41:47.748Z,-7.10
2022-12-12T22:44:19.006Z,-7.30
2022-12-12T22:46:48.229Z,-7.50
2022-12-12T22:49:19.352Z,-7.60
2022-12-12T22:51:48.726Z,-7.70
2022-12-12T22:54:17.021Z,-7.80
2022-12-12T22:56:45.637Z,-7.90
2022-12-12T22:59:16.318Z,-8.00
2022-12-12T23:01:44.636Z,-8.10
2022-12-12T23:04:14.059Z,-8.30
2022-12-12T23:06:42.812Z,-8.40
2022-12-12T23:09:15.044Z,-8.50
2022-12-12T23:11:44.212Z,-8.70
2022-12-12T23:14:14.938Z,-8.80
2022-12-12T23:16:45.250Z,-8.90
2022-12-12T23:19:16.343Z,-9.10
2022-12-12T23:21:44.922Z,-9.20
2022-12-12T23:24:13.609Z,-9.30
2022-12-12T23:26:42.104Z,-9.50
2022-12-12T23:29:16.226Z,-9.70
2022-12-12T23:31:46.147Z,-9.80
2022-12-12T23:34:17.814Z,-9.90
2022-12-12T23:36:45.975Z,-9.90
2022-12-12T23:39:14.953Z,-10.00
2022-12-12T23:41:43.672Z,-10.20
2022-12-12T23:44:14.320Z,-10.30
2022-12-12T23:46:43.880Z,-10.40
2022-12-12T23:49:18.616Z,-10.50
2022-12-12T23:51:49.239Z,-10.70
2022-12-12T23:54:20.213Z,-10.80
2022-12-12T23:56:49.219Z,-10.90
2022-12-12T23:59:18.753Z,-11.10
